Terminal Aerodrome Forecast
Issued by NWS

Home | Current Version | Previous Version | Text Only | Print | Product List | Glossary On
Versions: 1 2 3 4 5 6 7 8 9 10 11 12 13
011
FTUS43 KFGF 241121 AAA
TAFTVF
TAF AMD
KTVF 241121Z 2411/2512 26007KT P6SM VCSH FEW050 BKN150
      TEMPO 2412/2414 4SM -RA BKN050
     FM241600 26007KT P6SM SCT250
     FM242000 20007KT P6SM VCTS SCT050CB BKN250
     FM242200 VRB06KT P6SM SCT250
      AMD LTD TO CLD VIS AND WIND=

USA.gov is the U.S. government's official web portal to all federal, state and local government web resources and services.